sensor_id;sensor_type;location;lat;lon;timestamp;temperature;humidity
69464;DHT22;56665;41.106;16.688;2023-02-13T00:02:36;9.49;63.79
69464;DHT22;56665;41.106;16.688;2023-02-13T00:05:39;9.54;64.29
69464;DHT22;56665;41.106;16.688;2023-02-13T00:08:44;9.63;64.67
69464;DHT22;56665;41.106;16.688;2023-02-13T00:11:50;9.60;64.17
69464;DHT22;56665;41.106;16.688;2023-02-13T00:14:54;9.50;64.30
69464;DHT22;56665;41.106;16.688;2023-02-13T00:17:58;9.44;64.51
69464;DHT22;56665;41.106;16.688;2023-02-13T00:21:07;9.42;64.40
69464;DHT22;56665;41.106;16.688;2023-02-13T00:24:13;9.46;64.55
69464;DHT22;56665;41.106;16.688;2023-02-13T00:27:17;9.49;64.15
69464;DHT22;56665;41.106;16.688;2023-02-13T00:30:21;9.50;63.22
69464;DHT22;56665;41.106;16.688;2023-02-13T00:33:28;9.56;63.23
69464;DHT22;56665;41.106;16.688;2023-02-13T00:36:31;9.63;63.33
69464;DHT22;56665;41.106;16.688;2023-02-13T00:39:35;9.70;62.81
69464;DHT22;56665;41.106;16.688;2023-02-13T00:42:39;9.80;63.00
69464;DHT22;56665;41.106;16.688;2023-02-13T00:45:43;9.78;62.16
69464;DHT22;56665;41.106;16.688;2023-02-13T00:48:46;9.78;61.84
69464;DHT22;56665;41.106;16.688;2023-02-13T00:51:50;9.80;61.75
69464;DHT22;56665;41.106;16.688;2023-02-13T00:54:56;9.77;61.68
69464;DHT22;56665;41.106;16.688;2023-02-13T00:58:01;9.71;61.52
69464;DHT22;56665;41.106;16.688;2023-02-13T01:01:05;9.73;61.80
69464;DHT22;56665;41.106;16.688;2023-02-13T01:04:09;9.75;61.68
69464;DHT22;56665;41.106;16.688;2023-02-13T01:07:14;9.86;61.62
69464;DHT22;56665;41.106;16.688;2023-02-13T01:10:20;9.86;61.50
69464;DHT22;56665;41.106;16.688;2023-02-13T01:13:25;9.86;61.32
69464;DHT22;56665;41.106;16.688;2023-02-13T01:16:30;9.83;61.69
69464;DHT22;56665;41.106;16.688;2023-02-13T01:19:39;9.78;62.01
69464;DHT22;56665;41.106;16.688;2023-02-13T01:22:42;9.80;61.85
69464;DHT22;56665;41.106;16.688;2023-02-13T01:25:47;9.80;62.29
69464;DHT22;56665;41.106;16.688;2023-02-13T01:28:52;9.71;62.38
69464;DHT22;56665;41.106;16.688;2023-02-13T01:31:56;9.66;63.22
69464;DHT22;56665;41.106;16.688;2023-02-13T01:35:05;9.66;63.50
69464;DHT22;56665;41.106;16.688;2023-02-13T01:38:09;9.64;63.39
69464;DHT22;56665;41.106;16.688;2023-02-13T01:41:13;9.60;64.03
69464;DHT22;56665;41.106;16.688;2023-02-13T01:44:47;9.53;64.58
69464;DHT22;56665;41.106;16.688;2023-02-13T01:47:58;9.51;64.83
69464;DHT22;56665;41.106;16.688;2023-02-13T01:51:24;9.46;65.16
69464;DHT22;56665;41.106;16.688;2023-02-13T01:54:32;9.47;65.21
69464;DHT22;56665;41.106;16.688;2023-02-13T01:57:39;9.37;65.73
69464;DHT22;56665;41.106;16.688;2023-02-13T02:00:44;9.33;66.58
69464;DHT22;56665;41.106;16.688;2023-02-13T02:03:56;9.29;66.53
69464;DHT22;56665;41.106;16.688;2023-02-13T02:07:37;9.30;66.99
69464;DHT22;56665;41.106;16.688;2023-02-13T02:10:44;9.25;67.14
69464;DHT22;56665;41.106;16.688;2023-02-13T02:13:49;9.28;67.33
69464;DHT22;56665;41.106;16.688;2023-02-13T02:17:04;9.23;67.35
69464;DHT22;56665;41.106;16.688;2023-02-13T02:31:13;9.15;67.74
69464;DHT22;56665;41.106;16.688;2023-02-13T02:40:45;9.12;67.12
69464;DHT22;56665;41.106;16.688;2023-02-13T02:44:23;9.11;67.43
69464;DHT22;56665;41.106;16.688;2023-02-13T02:51:21;9.18;67.24
69464;DHT22;56665;41.106;16.688;2023-02-13T02:54:49;9.19;67.00
69464;DHT22;56665;41.106;16.688;2023-02-13T03:01:38;9.26;66.19
69464;DHT22;56665;41.106;16.688;2023-02-13T03:05:01;9.30;66.15
69464;DHT22;56665;41.106;16.688;2023-02-13T03:08:27;9.36;66.36
69464;DHT22;56665;41.106;16.688;2023-02-13T03:11:53;9.40;66.53
69464;DHT22;56665;41.106;16.688;2023-02-13T03:15:19;9.44;66.37
69464;DHT22;56665;41.106;16.688;2023-02-13T03:18:30;9.42;66.46
69464;DHT22;56665;41.106;16.688;2023-02-13T03:22:36;9.42;66.60
69464;DHT22;56665;41.106;16.688;2023-02-13T03:29:13;9.36;66.57
69464;DHT22;56665;41.106;16.688;2023-02-13T03:36:17;9.16;67.14
69464;DHT22;56665;41.106;16.688;2023-02-13T03:40:04;9.02;67.76
69464;DHT22;56665;41.106;16.688;2023-02-13T03:43:12;8.95;68.26
69464;DHT22;56665;41.106;16.688;2023-02-13T03:46:18;8.88;68.52
69464;DHT22;56665;41.106;16.688;2023-02-13T03:49:44;8.83;68.53
69464;DHT22;56665;41.106;16.688;2023-02-13T03:53:10;8.71;68.72
69464;DHT22;56665;41.106;16.688;2023-02-13T03:56:18;8.60;69.08
69464;DHT22;56665;41.106;16.688;2023-02-13T03:59:44;8.46;69.27
69464;DHT22;56665;41.106;16.688;2023-02-13T04:06:31;8.26;69.81
69464;DHT22;56665;41.106;16.688;2023-02-13T04:09:38;8.12;69.86
69464;DHT22;56665;41.106;16.688;2023-02-13T04:13:02;7.94;70.38
69464;DHT22;56665;41.106;16.688;2023-02-13T04:16:19;7.88;71.08
69464;DHT22;56665;41.106;16.688;2023-02-13T04:19:24;7.84;71.66
69464;DHT22;56665;41.106;16.688;2023-02-13T04:22:29;7.85;71.87
69464;DHT22;56665;41.106;16.688;2023-02-13T04:25:35;7.88;71.52
69464;DHT22;56665;41.106;16.688;2023-02-13T04:28:40;7.94;71.38
69464;DHT22;56665;41.106;16.688;2023-02-13T04:31:43;7.91;70.57
69464;DHT22;56665;41.106;16.688;2023-02-13T04:34:47;7.75;70.15
69464;DHT22;56665;41.106;16.688;2023-02-13T04:37:53;7.57;70.69
69464;DHT22;56665;41.106;16.688;2023-02-13T04:40:57;7.43;71.32
69464;DHT22;56665;41.106;16.688;2023-02-13T04:44:01;7.36;71.62
69464;DHT22;56665;41.106;16.688;2023-02-13T04:47:04;7.28;71.94
69464;DHT22;56665;41.106;16.688;2023-02-13T04:50:09;7.34;73.19
69464;DHT22;56665;41.106;16.688;2023-02-13T04:53:13;7.40;73.15
69464;DHT22;56665;41.106;16.688;2023-02-13T04:56:18;7.43;72.12
69464;DHT22;56665;41.106;16.688;2023-02-13T04:59:22;7.48;71.67
69464;DHT22;56665;41.106;16.688;2023-02-13T05:02:25;7.44;71.41
69464;DHT22;56665;41.106;16.688;2023-02-13T05:05:32;7.41;71.46
69464;DHT22;56665;41.106;16.688;2023-02-13T05:08:36;7.38;71.87
69464;DHT22;56665;41.106;16.688;2023-02-13T05:11:40;7.40;71.92
69464;DHT22;56665;41.106;16.688;2023-02-13T05:14:43;7.34;72.18
69464;DHT22;56665;41.106;16.688;2023-02-13T05:17:47;7.27;72.09
69464;DHT22;56665;41.106;16.688;2023-02-13T05:20:51;7.26;72.22
69464;DHT22;56665;41.106;16.688;2023-02-13T05:24:16;7.17;72.13
69464;DHT22;56665;41.106;16.688;2023-02-13T05:27:21;7.12;72.41
69464;DHT22;56665;41.106;16.688;2023-02-13T05:30:25;7.09;72.63
69464;DHT22;56665;41.106;16.688;2023-02-13T05:33:28;7.15;72.79
69464;DHT22;56665;41.106;16.688;2023-02-13T05:36:32;7.16;72.46
69464;DHT22;56665;41.106;16.688;2023-02-13T05:39:41;7.17;72.15
69464;DHT22;56665;41.106;16.688;2023-02-13T05:42:45;7.05;72.15
69464;DHT22;56665;41.106;16.688;2023-02-13T05:45:48;7.03;72.28
69464;DHT22;56665;41.106;16.688;2023-02-13T05:48:56;6.93;72.21
69464;DHT22;56665;41.106;16.688;2023-02-13T05:51:59;6.86;72.35
69464;DHT22;56665;41.106;16.688;2023-02-13T05:55:03;6.84;72.52
69464;DHT22;56665;41.106;16.688;2023-02-13T05:58:07;6.78;71.88
69464;DHT22;56665;41.106;16.688;2023-02-13T06:01:12;6.69;71.71
69464;DHT22;56665;41.106;16.688;2023-02-13T06:04:16;6.61;71.90
69464;DHT22;56665;41.106;16.688;2023-02-13T06:07:19;6.55;72.00
69464;DHT22;56665;41.106;16.688;2023-02-13T06:10:25;6.54;71.92
69464;DHT22;56665;41.106;16.688;2023-02-13T06:13:29;6.59;72.58
69464;DHT22;56665;41.106;16.688;2023-02-13T06:16:37;6.74;72.66
69464;DHT22;56665;41.106;16.688;2023-02-13T06:19:43;6.85;73.22
69464;DHT22;56665;41.106;16.688;2023-02-13T06:22:50;6.92;72.76
69464;DHT22;56665;41.106;16.688;2023-02-13T06:25:54;7.06;71.92
69464;DHT22;56665;41.106;16.688;2023-02-13T06:29:00;7.16;70.40
69464;DHT22;56665;41.106;16.688;2023-02-13T06:32:04;7.19;70.59
69464;DHT22;56665;41.106;16.688;2023-02-13T06:35:08;7.23;70.18
69464;DHT22;56665;41.106;16.688;2023-02-13T06:38:12;7.23;69.95
69464;DHT22;56665;41.106;16.688;2023-02-13T06:41:16;7.17;70.42
69464;DHT22;56665;41.106;16.688;2023-02-13T06:44:19;7.33;70.92
69464;DHT22;56665;41.106;16.688;2023-02-13T06:47:23;7.58;71.21
69464;DHT22;56665;41.106;16.688;2023-02-13T06:50:27;7.94;70.08
69464;DHT22;56665;41.106;16.688;2023-02-13T06:53:31;8.19;68.80
69464;DHT22;56665;41.106;16.688;2023-02-13T06:56:36;8.50;67.43
69464;DHT22;56665;41.106;16.688;2023-02-13T06:59:42;8.67;67.10
69464;DHT22;56665;41.106;16.688;2023-02-13T07:02:47;8.83;67.02
69464;DHT22;56665;41.106;16.688;2023-02-13T07:05:50;9.02;66.33
69464;DHT22;56665;41.106;16.688;2023-02-13T07:08:54;9.28;66.24
69464;DHT22;56665;41.106;16.688;2023-02-13T07:12:01;9.61;65.70
69464;DHT22;56665;41.106;16.688;2023-02-13T07:15:05;9.97;64.30
69464;DHT22;56665;41.106;16.688;2023-02-13T07:18:11;10.21;63.79
69464;DHT22;56665;41.106;16.688;2023-02-13T07:21:15;10.39;63.46
69464;DHT22;56665;41.106;16.688;2023-02-13T07:24:19;10.57;63.13
69464;DHT22;56665;41.106;16.688;2023-02-13T07:27:23;10.81;62.69
69464;DHT22;56665;41.106;16.688;2023-02-13T07:30:26;11.07;62.28
69464;DHT22;56665;41.106;16.688;2023-02-13T07:33:38;11.37;61.62
69464;DHT22;56665;41.106;16.688;2023-02-13T07:36:20;11.62;61.18
69464;DHT22;56665;41.106;16.688;2023-02-13T07:39:24;11.91;60.50
69464;DHT22;56665;41.106;16.688;2023-02-13T07:42:33;12.14;60.02
69464;DHT22;56665;41.106;16.688;2023-02-13T07:45:37;12.40;59.58
69464;DHT22;56665;41.106;16.688;2023-02-13T07:48:41;12.65;58.95
69464;DHT22;56665;41.106;16.688;2023-02-13T07:51:44;12.91;58.44
69464;DHT22;56665;41.106;16.688;2023-02-13T07:54:48;13.13;57.88
69464;DHT22;56665;41.106;16.688;2023-02-13T07:57:54;13.34;57.27
69464;DHT22;56665;41.106;16.688;2023-02-13T08:00:58;13.55;56.95
69464;DHT22;56665;41.106;16.688;2023-02-13T08:04:04;13.79;56.31
69464;DHT22;56665;41.106;16.688;2023-02-13T08:07:07;14.05;55.76
69464;DHT22;56665;41.106;16.688;2023-02-13T08:10:12;14.26;55.26
69464;DHT22;56665;41.106;16.688;2023-02-13T08:13:34;14.47;54.56
69464;DHT22;56665;41.106;16.688;2023-02-13T08:16:40;14.64;53.21
69464;DHT22;56665;41.106;16.688;2023-02-13T08:19:44;14.77;53.24
69464;DHT22;56665;41.106;16.688;2023-02-13T08:22:49;14.98;52.66
69464;DHT22;56665;41.106;16.688;2023-02-13T08:25:53;15.04;52.07
69464;DHT22;56665;41.106;16.688;2023-02-13T08:28:56;15.28;50.91
69464;DHT22;56665;41.106;16.688;2023-02-13T08:32:01;15.50;50.47
69464;DHT22;56665;41.106;16.688;2023-02-13T08:35:06;15.63;49.31
69464;DHT22;56665;41.106;16.688;2023-02-13T08:38:10;15.70;49.31
69464;DHT22;56665;41.106;16.688;2023-02-13T08:41:14;15.87;49.37
69464;DHT22;56665;41.106;16.688;2023-02-13T08:44:17;16.04;49.20
69464;DHT22;56665;41.106;16.688;2023-02-13T08:47:21;16.06;48.69
69464;DHT22;56665;41.106;16.688;2023-02-13T08:50:26;16.13;48.39
69464;DHT22;56665;41.106;16.688;2023-02-13T08:53:29;15.84;48.36
69464;DHT22;56665;41.106;16.688;2023-02-13T08:56:37;15.77;48.34
69464;DHT22;56665;41.106;16.688;2023-02-13T08:59:41;16.08;47.94
69464;DHT22;56665;41.106;16.688;2023-02-13T09:02:45;15.77;47.73
69464;DHT22;56665;41.106;16.688;2023-02-13T09:05:52;15.90;47.93
69464;DHT22;56665;41.106;16.688;2023-02-13T09:08:55;15.77;47.15
69464;DHT22;56665;41.106;16.688;2023-02-13T09:11:59;15.28;49.09
69464;DHT22;56665;41.106;16.688;2023-02-13T09:15:04;15.80;48.15
69464;DHT22;56665;41.106;16.688;2023-02-13T09:18:09;15.96;46.58
69464;DHT22;56665;41.106;16.688;2023-02-13T09:21:13;15.91;47.35
69464;DHT22;56665;41.106;16.688;2023-02-13T09:24:17;16.80;45.78
69464;DHT22;56665;41.106;16.688;2023-02-13T09:27:21;17.52;45.01
69464;DHT22;56665;41.106;16.688;2023-02-13T09:30:25;16.90;45.48
69464;DHT22;56665;41.106;16.688;2023-02-13T09:33:29;16.80;45.67
69464;DHT22;56665;41.106;16.688;2023-02-13T09:36:33;17.41;44.20
69464;DHT22;56665;41.106;16.688;2023-02-13T09:39:38;18.10;43.18
69464;DHT22;56665;41.106;16.688;2023-02-13T09:42:42;18.14;42.22
69464;DHT22;56665;41.106;16.688;2023-02-13T09:45:47;16.60;44.62
69464;DHT22;56665;41.106;16.688;2023-02-13T09:48:54;15.66;46.20
69464;DHT22;56665;41.106;16.688;2023-02-13T09:51:58;16.25;45.74
69464;DHT22;56665;41.106;16.688;2023-02-13T09:55:23;16.95;44.95
69464;DHT22;56665;41.106;16.688;2023-02-13T09:58:42;17.06;43.94
69464;DHT22;56665;41.106;16.688;2023-02-13T10:01:48;17.44;43.42
69464;DHT22;56665;41.106;16.688;2023-02-13T10:16:04;16.21;45.76
69464;DHT22;56665;41.106;16.688;2023-02-13T10:18:49;16.17;45.42
69464;DHT22;56665;41.106;16.688;2023-02-13T10:22:04;16.24;45.15
69464;DHT22;56665;41.106;16.688;2023-02-13T10:25:15;14.88;46.85
69464;DHT22;56665;41.106;16.688;2023-02-13T10:28:33;14.67;47.80
69464;DHT22;56665;41.106;16.688;2023-02-13T10:31:43;15.36;47.28
69464;DHT22;56665;41.106;16.688;2023-02-13T10:34:50;15.57;47.02
69464;DHT22;56665;41.106;16.688;2023-02-13T10:37:58;15.63;45.88
69464;DHT22;56665;41.106;16.688;2023-02-13T10:44:15;15.16;46.16
69464;DHT22;56665;41.106;16.688;2023-02-13T10:50:30;15.56;46.06
69464;DHT22;56665;41.106;16.688;2023-02-13T10:53:47;15.81;44.73
69464;DHT22;56665;41.106;16.688;2023-02-13T10:57:23;14.70;46.40
69464;DHT22;56665;41.106;16.688;2023-02-13T11:00:39;14.71;47.09
69464;DHT22;56665;41.106;16.688;2023-02-13T11:03:49;15.29;45.99
69464;DHT22;56665;41.106;16.688;2023-02-13T11:07:03;15.57;46.00
69464;DHT22;56665;41.106;16.688;2023-02-13T11:10:19;15.07;46.72
69464;DHT22;56665;41.106;16.688;2023-02-13T11:13:27;15.09;46.59
69464;DHT22;56665;41.106;16.688;2023-02-13T11:16:58;15.07;46.95
69464;DHT22;56665;41.106;16.688;2023-02-13T11:20:20;15.23;45.85
69464;DHT22;56665;41.106;16.688;2023-02-13T11:26:34;15.46;46.16
69464;DHT22;56665;41.106;16.688;2023-02-13T11:29:56;14.68;47.73
69464;DHT22;56665;41.106;16.688;2023-02-13T11:33:08;15.05;46.78
69464;DHT22;56665;41.106;16.688;2023-02-13T11:36:26;15.01;47.18
69464;DHT22;56665;41.106;16.688;2023-02-13T11:39:32;15.25;46.62
69464;DHT22;56665;41.106;16.688;2023-02-13T11:42:35;15.52;46.49
69464;DHT22;56665;41.106;16.688;2023-02-13T11:45:40;15.20;45.53
69464;DHT22;56665;41.106;16.688;2023-02-13T11:49:02;15.12;45.95
69464;DHT22;56665;41.106;16.688;2023-02-13T11:52:21;15.39;46.05
69464;DHT22;56665;41.106;16.688;2023-02-13T11:55:31;15.43;46.07
69464;DHT22;56665;41.106;16.688;2023-02-13T11:58:37;15.49;45.83
69464;DHT22;56665;41.106;16.688;2023-02-13T12:01:41;14.76;47.43
69464;DHT22;56665;41.106;16.688;2023-02-13T12:04:53;14.43;48.45
69464;DHT22;56665;41.106;16.688;2023-02-13T12:08:00;14.81;47.27
69464;DHT22;56665;41.106;16.688;2023-02-13T12:14:29;14.87;46.54
69464;DHT22;56665;41.106;16.688;2023-02-13T12:17:34;14.15;47.65
69464;DHT22;56665;41.106;16.688;2023-02-13T12:20:56;13.98;48.71
69464;DHT22;56665;41.106;16.688;2023-02-13T12:27:37;14.66;47.94
69464;DHT22;56665;41.106;16.688;2023-02-13T12:34:57;14.46;47.60
69464;DHT22;56665;41.106;16.688;2023-02-13T12:38:32;14.60;47.58
69464;DHT22;56665;41.106;16.688;2023-02-13T12:45:24;15.05;46.76
69464;DHT22;56665;41.106;16.688;2023-02-13T13:28:52;13.57;49.98
69464;DHT22;56665;41.106;16.688;2023-02-13T13:32:06;13.57;50.19
69464;DHT22;56665;41.106;16.688;2023-02-13T13:35:13;13.53;51.93
69464;DHT22;56665;41.106;16.688;2023-02-13T13:45:21;14.32;49.05
69464;DHT22;56665;41.106;16.688;2023-02-13T13:51:37;14.43;50.56
69464;DHT22;56665;41.106;16.688;2023-02-13T13:54:41;14.33;49.11
69464;DHT22;56665;41.106;16.688;2023-02-13T13:57:59;14.23;49.41
69464;DHT22;56665;41.106;16.688;2023-02-13T14:07:39;14.09;50.41
69464;DHT22;56665;41.106;16.688;2023-02-13T14:13:56;13.68;50.39
69464;DHT22;56665;41.106;16.688;2023-02-13T14:17:00;13.48;52.04
69464;DHT22;56665;41.106;16.688;2023-02-13T14:23:46;13.57;51.30
69464;DHT22;56665;41.106;16.688;2023-02-13T14:26:59;13.57;51.02
69464;DHT22;56665;41.106;16.688;2023-02-13T14:30:04;13.47;51.73
69464;DHT22;56665;41.106;16.688;2023-02-13T14:33:29;13.24;52.83
69464;DHT22;56665;41.106;16.688;2023-02-13T14:36:39;13.17;52.92
69464;DHT22;56665;41.106;16.688;2023-02-13T14:46:38;12.80;55.08
69464;DHT22;56665;41.106;16.688;2023-02-13T14:49:44;12.96;54.19
69464;DHT22;56665;41.106;16.688;2023-02-13T14:52:55;13.10;53.95
69464;DHT22;56665;41.106;16.688;2023-02-13T14:56:10;13.05;53.26
69464;DHT22;56665;41.106;16.688;2023-02-13T14:59:22;12.96;53.15
69464;DHT22;56665;41.106;16.688;2023-02-13T15:02:30;12.72;54.21
69464;DHT22;56665;41.106;16.688;2023-02-13T15:05:38;12.69;54.39
69464;DHT22;56665;41.106;16.688;2023-02-13T15:08:47;12.49;54.87
69464;DHT22;56665;41.106;16.688;2023-02-13T15:11:51;12.38;55.37
69464;DHT22;56665;41.106;16.688;2023-02-13T15:14:58;12.42;55.85
69464;DHT22;56665;41.106;16.688;2023-02-13T15:18:08;12.47;56.49
69464;DHT22;56665;41.106;16.688;2023-02-13T15:21:17;12.51;57.05
69464;DHT22;56665;41.106;16.688;2023-02-13T15:24:22;12.52;57.33
69464;DHT22;56665;41.106;16.688;2023-02-13T15:27:30;12.49;56.63
69464;DHT22;56665;41.106;16.688;2023-02-13T15:30:37;12.52;56.49
69464;DHT22;56665;41.106;16.688;2023-02-13T15:33:46;12.49;55.81
69464;DHT22;56665;41.106;16.688;2023-02-13T15:36:52;12.38;55.97
69464;DHT22;56665;41.106;16.688;2023-02-13T15:40:12;12.36;55.94
69464;DHT22;56665;41.106;16.688;2023-02-13T15:43:22;12.36;55.83
69464;DHT22;56665;41.106;16.688;2023-02-13T15:46:28;12.26;55.62
69464;DHT22;56665;41.106;16.688;2023-02-13T15:49:43;12.21;56.68
69464;DHT22;56665;41.106;16.688;2023-02-13T15:52:49;12.13;57.51
69464;DHT22;56665;41.106;16.688;2023-02-13T15:56:03;12.12;57.48
69464;DHT22;56665;41.106;16.688;2023-02-13T15:59:08;12.04;57.17
69464;DHT22;56665;41.106;16.688;2023-02-13T16:02:18;12.01;57.17
69464;DHT22;56665;41.106;16.688;2023-02-13T16:05:25;11.93;57.54
69464;DHT22;56665;41.106;16.688;2023-02-13T16:08:33;11.86;58.06
69464;DHT22;56665;41.106;16.688;2023-02-13T16:11:39;11.79;58.51
69464;DHT22;56665;41.106;16.688;2023-02-13T16:15:02;11.69;58.89
69464;DHT22;56665;41.106;16.688;2023-02-13T16:18:20;11.59;58.77
69464;DHT22;56665;41.106;16.688;2023-02-13T16:21:26;11.51;59.39
69464;DHT22;56665;41.106;16.688;2023-02-13T16:24:30;11.42;61.41
69464;DHT22;56665;41.106;16.688;2023-02-13T16:27:35;11.37;60.57
69464;DHT22;56665;41.106;16.688;2023-02-13T16:30:41;11.34;60.15
69464;DHT22;56665;41.106;16.688;2023-02-13T16:33:45;11.27;60.22
69464;DHT22;56665;41.106;16.688;2023-02-13T16:36:50;11.21;59.96
69464;DHT22;56665;41.106;16.688;2023-02-13T16:39:55;11.11;60.44
69464;DHT22;56665;41.106;16.688;2023-02-13T16:43:33;11.10;60.67
69464;DHT22;56665;41.106;16.688;2023-02-13T16:46:39;11.04;61.04
69464;DHT22;56665;41.106;16.688;2023-02-13T16:49:51;10.93;61.53
69464;DHT22;56665;41.106;16.688;2023-02-13T16:53:01;10.97;61.48
69464;DHT22;56665;41.106;16.688;2023-02-13T16:56:10;10.87;61.56
69464;DHT22;56665;41.106;16.688;2023-02-13T16:59:23;10.86;61.58
69464;DHT22;56665;41.106;16.688;2023-02-13T17:02:37;10.80;61.87
69464;DHT22;56665;41.106;16.688;2023-02-13T17:05:43;10.73;62.14
69464;DHT22;56665;41.106;16.688;2023-02-13T17:08:46;10.72;62.67
69464;DHT22;56665;41.106;16.688;2023-02-13T17:11:52;10.59;63.92
69464;DHT22;56665;41.106;16.688;2023-02-13T17:14:57;10.48;64.66
69464;DHT22;56665;41.106;16.688;2023-02-13T17:18:03;10.35;65.26
69464;DHT22;56665;41.106;16.688;2023-02-13T17:21:07;10.28;65.75
69464;DHT22;56665;41.106;16.688;2023-02-13T17:24:16;10.17;65.83
69464;DHT22;56665;41.106;16.688;2023-02-13T17:27:20;10.11;65.79
69464;DHT22;56665;41.106;16.688;2023-02-13T17:30:31;10.09;65.44
69464;DHT22;56665;41.106;16.688;2023-02-13T17:33:35;10.08;65.34
69464;DHT22;56665;41.106;16.688;2023-02-13T17:36:41;9.99;65.50
69464;DHT22;56665;41.106;16.688;2023-02-13T17:39:46;9.90;65.85
69464;DHT22;56665;41.106;16.688;2023-02-13T17:42:53;9.83;65.87
69464;DHT22;56665;41.106;16.688;2023-02-13T17:45:57;9.77;65.94
69464;DHT22;56665;41.106;16.688;2023-02-13T17:49:02;9.71;65.90
69464;DHT22;56665;41.106;16.688;2023-02-13T17:52:12;9.68;65.96
69464;DHT22;56665;41.106;16.688;2023-02-13T17:55:28;9.60;66.22
69464;DHT22;56665;41.106;16.688;2023-02-13T17:58:33;9.49;66.60
69464;DHT22;56665;41.106;16.688;2023-02-13T18:01:36;9.47;66.48
69464;DHT22;56665;41.106;16.688;2023-02-13T18:04:41;9.39;66.47
69464;DHT22;56665;41.106;16.688;2023-02-13T18:07:46;9.33;66.36
69464;DHT22;56665;41.106;16.688;2023-02-13T18:10:50;9.33;66.25
69464;DHT22;56665;41.106;16.688;2023-02-13T18:13:54;9.35;65.81
69464;DHT22;56665;41.106;16.688;2023-02-13T18:16:59;9.30;65.97
69464;DHT22;56665;41.106;16.688;2023-02-13T18:20:05;9.26;66.18
69464;DHT22;56665;41.106;16.688;2023-02-13T18:23:10;9.25;66.12
69464;DHT22;56665;41.106;16.688;2023-02-13T18:26:13;9.23;66.29
69464;DHT22;56665;41.106;16.688;2023-02-13T18:29:17;9.22;66.30
69464;DHT22;56665;41.106;16.688;2023-02-13T18:32:22;9.15;66.42
69464;DHT22;56665;41.106;16.688;2023-02-13T18:35:25;9.08;66.28
69464;DHT22;56665;41.106;16.688;2023-02-13T18:38:32;8.99;66.79
69464;DHT22;56665;41.106;16.688;2023-02-13T18:41:36;8.94;66.77
69464;DHT22;56665;41.106;16.688;2023-02-13T18:44:40;8.84;66.99
69464;DHT22;56665;41.106;16.688;2023-02-13T18:47:44;8.74;67.48
69464;DHT22;56665;41.106;16.688;2023-02-13T18:50:48;8.77;67.10
69464;DHT22;56665;41.106;16.688;2023-02-13T18:53:51;8.75;67.20
69464;DHT22;56665;41.106;16.688;2023-02-13T18:56:56;8.71;67.25
69464;DHT22;56665;41.106;16.688;2023-02-13T19:00:03;8.65;67.04
69464;DHT22;56665;41.106;16.688;2023-02-13T19:03:07;8.60;67.40
69464;DHT22;56665;41.106;16.688;2023-02-13T19:06:14;8.61;67.26
69464;DHT22;56665;41.106;16.688;2023-02-13T19:09:21;8.47;67.47
69464;DHT22;56665;41.106;16.688;2023-02-13T19:12:24;8.40;67.87
69464;DHT22;56665;41.106;16.688;2023-02-13T19:15:28;8.33;67.85
69464;DHT22;56665;41.106;16.688;2023-02-13T19:18:37;8.30;68.21
69464;DHT22;56665;41.106;16.688;2023-02-13T19:21:43;8.29;67.92
69464;DHT22;56665;41.106;16.688;2023-02-13T19:24:47;8.23;68.08
69464;DHT22;56665;41.106;16.688;2023-02-13T19:27:51;8.19;68.07
69464;DHT22;56665;41.106;16.688;2023-02-13T19:31:18;8.16;68.08
69464;DHT22;56665;41.106;16.688;2023-02-13T19:34:22;8.16;68.19
69464;DHT22;56665;41.106;16.688;2023-02-13T19:37:28;8.13;68.13
69464;DHT22;56665;41.106;16.688;2023-02-13T19:40:36;8.10;68.13
69464;DHT22;56665;41.106;16.688;2023-02-13T19:43:39;8.06;68.42
69464;DHT22;56665;41.106;16.688;2023-02-13T19:46:43;8.06;68.29
69464;DHT22;56665;41.106;16.688;2023-02-13T19:49:47;8.05;68.42
69464;DHT22;56665;41.106;16.688;2023-02-13T19:52:51;8.03;68.08
69464;DHT22;56665;41.106;16.688;2023-02-13T19:55:58;7.92;68.40
69464;DHT22;56665;41.106;16.688;2023-02-13T19:59:06;7.94;68.43
69464;DHT22;56665;41.106;16.688;2023-02-13T20:02:13;7.88;68.34
69464;DHT22;56665;41.106;16.688;2023-02-13T20:05:17;7.85;68.60
69464;DHT22;56665;41.106;16.688;2023-02-13T20:08:22;7.82;68.66
69464;DHT22;56665;41.106;16.688;2023-02-13T20:11:26;7.77;68.93
69464;DHT22;56665;41.106;16.688;2023-02-13T20:14:33;7.82;69.39
69464;DHT22;56665;41.106;16.688;2023-02-13T20:17:38;7.88;69.53
69464;DHT22;56665;41.106;16.688;2023-02-13T20:20:42;7.94;69.77
69464;DHT22;56665;41.106;16.688;2023-02-13T20:23:50;7.95;69.46
69464;DHT22;56665;41.106;16.688;2023-02-13T20:26:53;8.01;68.95
69464;DHT22;56665;41.106;16.688;2023-02-13T20:29:59;8.05;68.22
69464;DHT22;56665;41.106;16.688;2023-02-13T20:33:03;8.06;68.56
69464;DHT22;56665;41.106;16.688;2023-02-13T20:36:16;8.03;68.94
69464;DHT22;56665;41.106;16.688;2023-02-13T20:39:20;8.03;68.78
69464;DHT22;56665;41.106;16.688;2023-02-13T20:42:23;8.01;68.12
69464;DHT22;56665;41.106;16.688;2023-02-13T20:45:27;7.99;68.17
69464;DHT22;56665;41.106;16.688;2023-02-13T20:48:34;7.98;68.68
69464;DHT22;56665;41.106;16.688;2023-02-13T20:51:43;7.88;68.28
69464;DHT22;56665;41.106;16.688;2023-02-13T20:54:47;7.88;67.69
69464;DHT22;56665;41.106;16.688;2023-02-13T20:57:51;7.86;67.41
69464;DHT22;56665;41.106;16.688;2023-02-13T21:00:58;7.91;67.67
69464;DHT22;56665;41.106;16.688;2023-02-13T21:04:03;7.85;67.59
69464;DHT22;56665;41.106;16.688;2023-02-13T21:07:08;7.81;67.66
69464;DHT22;56665;41.106;16.688;2023-02-13T21:10:15;7.74;67.88
69464;DHT22;56665;41.106;16.688;2023-02-13T21:13:22;7.71;68.37
69464;DHT22;56665;41.106;16.688;2023-02-13T21:16:31;7.72;68.35
69464;DHT22;56665;41.106;16.688;2023-02-13T21:19:36;7.71;67.91
69464;DHT22;56665;41.106;16.688;2023-02-13T21:22:41;7.71;67.60
69464;DHT22;56665;41.106;16.688;2023-02-13T21:25:44;7.72;67.39
69464;DHT22;56665;41.106;16.688;2023-02-13T21:28:49;7.74;67.40
69464;DHT22;56665;41.106;16.688;2023-02-13T21:31:52;7.69;67.18
69464;DHT22;56665;41.106;16.688;2023-02-13T21:34:56;7.69;67.64
69464;DHT22;56665;41.106;16.688;2023-02-13T21:38:01;7.75;67.71
69464;DHT22;56665;41.106;16.688;2023-02-13T21:44:14;7.79;66.81
69464;DHT22;56665;41.106;16.688;2023-02-13T21:47:18;7.77;67.19
69464;DHT22;56665;41.106;16.688;2023-02-13T21:50:22;7.77;66.61
69464;DHT22;56665;41.106;16.688;2023-02-13T21:53:26;7.74;66.84
69464;DHT22;56665;41.106;16.688;2023-02-13T21:56:32;7.68;67.10
69464;DHT22;56665;41.106;16.688;2023-02-13T21:59:36;7.67;67.23
69464;DHT22;56665;41.106;16.688;2023-02-13T22:02:39;7.68;67.76
69464;DHT22;56665;41.106;16.688;2023-02-13T22:05:47;7.65;67.80